Airfield :
LOGIN :

Register | Disclaimer

   EN    FR    IT 

 










Legend :    VFR   Marginal VFR   IFR   Intensive IFR   Very Intensive IFR
Visi :
Ceiling :
>= 8 km
>= 3000ft
5 to 8 km
1000 to 3000 ft
1500m to 5 km
500 to 1000 ft
800 to 1500m
200 to 500 ft
< 800m
< 200 ft
Symbols :   Thunderstorms  Fog  Heavy snow  Heavy precipitations  Wind > 20 kt
SIGMETs :     Misc.  Thunderstorms  Icing  Turbulence  Mountain Waves  Volcanic Ashes






- Airport Elevation : 72 ft
- IATA code : UDE


EHVK - Volkel Airbase

CURRENT METAR :
  • 191733Z AUTO VRB01KT 7000 BR FEW047 BKN052 BKN060 21/20 Q1014 WHT

EXPIRED METARs :
  • 191725Z AUTO VRB01KT 8000 BR BKN053 OVC060 21/20 Q1014 BLU
  • 191714Z AUTO 27002KT 8000 BR FEW015CB SCT062 OVC096 21/20 Q1014 BLU
  • 191655Z AUTO 24004KT 220V280 6000 -DZ FEW015CB BKN036 BKN041 BKN091 21/20 Q1014 REDZ WHT
  • 191637Z AUTO 25005KT 220V300 7000 -RA FEW015CB BKN083 OVC098 21/19 Q1014 WHT
  • 191630Z AUTO 26004KT 230V300 9000 -SHRA FEW015CB BKN079 BKN086 BKN092 21/19 Q1014 BLU
  • 191625Z AUTO 27003KT 220V290 9999 -RA FEW015CB BKN079 OVC084 21/19 Q1014 BLU
  • 191556Z AUTO 24005KT 220V300 8000 BR FEW015CB SCT069 OVC079 21/20 Q1014 BLU
  • 191555Z AUTO 25006KT 220V300 7000 -SHRA FEW015CB BKN054 BKN069 21/19 Q1014 RERA WHT
  • 191549Z AUTO 26008KT 230V320 3200 +SHRA SCT044 BKN052 OVC058 21/18 Q1014 YLO
  • 191525Z AUTO 25008KT 210V320 9999 FEW049 BKN053 OVC060 23/17 Q1014 BLU
  • 191510Z AUTO 26007KT 210V320 9999 BKN050 OVC057 24/17 Q1014 BLU

TAF TAF EHVK
Valid from the 19 at 17:00 until the 20 at 05:00 UTC


191658Z 1917/2005 25005KT 8000 -RA FEW018 BKN035
PROB40
TEMPO 1917/1919 3000 SHRA TSRA SCT006 FEW015CB BKN025
PROB30
TEMPO 1923/2003 4000 SHRA FEW015CB SCT040



MET'MAP, your aeronautical weather chart ! - Copyright ORBIFLY December 2007 - Disclaimer

ORBIFLY MET'MAP TEAM :

Programming & Development : Alexandra Zaïnal
Original concept : Baudouin d'Aumeries
Technical & hardware support : Manuel Goepfert
Assistance : Marc-Olivier Méhu




SOURCES & CREDITS :

   NOAA